createdAt,value
2019-03-16T00:02:04.737Z,72.29
2019-03-16T00:04:32.090Z,72.15
2019-03-16T00:06:59.653Z,72.32
2019-03-16T00:09:27.082Z,72.15
2019-03-16T00:11:54.627Z,72.30
2019-03-16T00:14:22.143Z,72.24
2019-03-16T00:16:49.544Z,72.06
2019-03-16T00:19:17.002Z,71.88
2019-03-16T00:21:44.447Z,72.19
2019-03-16T00:24:11.936Z,72.21
2019-03-16T00:26:39.388Z,72.21
2019-03-16T00:29:06.807Z,72.22
2019-03-16T00:31:34.401Z,72.22
2019-03-16T00:34:01.871Z,72.08
2019-03-16T00:36:29.294Z,72.01
2019-03-16T00:38:56.721Z,71.49
2019-03-16T00:41:24.213Z,71.79
2019-03-16T00:43:51.582Z,71.93
2019-03-16T00:46:19.033Z,71.85
2019-03-16T00:48:46.437Z,71.73
2019-03-16T00:51:13.871Z,71.53
2019-03-16T00:53:41.283Z,71.73
2019-03-16T00:56:08.685Z,71.43
2019-03-16T00:58:36.071Z,71.71
2019-03-16T01:01:03.633Z,71.67
2019-03-16T01:03:30.999Z,71.55
2019-03-16T01:05:58.385Z,71.62
2019-03-16T01:08:25.802Z,71.54
2019-03-16T01:10:53.192Z,71.05
2019-03-16T01:13:20.657Z,71.17
2019-03-16T01:15:48.027Z,71.06
2019-03-16T01:18:15.481Z,70.94
2019-03-16T01:20:42.847Z,71.09
2019-03-16T01:23:10.287Z,71.46
2019-03-16T01:25:37.648Z,70.98
2019-03-16T01:28:05.069Z,70.98
2019-03-16T01:30:32.437Z,71.02
2019-03-16T01:32:59.822Z,71.12
2019-03-16T01:35:27.252Z,70.89
2019-03-16T01:37:54.716Z,71.05
2019-03-16T01:40:22.130Z,71.10
2019-03-16T01:42:49.572Z,70.92
2019-03-16T01:45:17.067Z,70.88
2019-03-16T01:47:44.664Z,70.87
2019-03-16T01:50:13.067Z,71.03
2019-03-16T01:52:40.687Z,70.87
2019-03-16T01:55:08.453Z,71.08
2019-03-16T01:57:35.861Z,71.27
2019-03-16T02:00:04.233Z,71.17
2019-03-16T02:02:31.637Z,71.43
2019-03-16T02:04:59.052Z,71.39
2019-03-16T02:07:26.474Z,71.70
2019-03-16T02:09:53.942Z,71.91
2019-03-16T02:12:21.627Z,72.32
2019-03-16T02:14:49.002Z,72.13
2019-03-16T02:17:16.615Z,71.72
2019-03-16T02:19:44.030Z,71.89
2019-03-16T02:22:11.467Z,71.76
2019-03-16T02:24:38.842Z,72.02
2019-03-16T02:27:06.277Z,71.68
2019-03-16T02:29:33.732Z,71.74
2019-03-16T02:32:01.165Z,71.88
2019-03-16T02:34:28.529Z,71.72
2019-03-16T02:36:56.949Z,71.66
2019-03-16T02:39:24.392Z,71.78
2019-03-16T02:41:51.778Z,71.55
2019-03-16T02:44:19.210Z,71.41
2019-03-16T02:46:47.089Z,71.31
2019-03-16T02:49:14.500Z,71.41
2019-03-16T02:51:41.864Z,71.19
2019-03-16T02:54:09.350Z,71.36
2019-03-16T02:56:36.732Z,71.52
2019-03-16T02:59:04.259Z,71.62
2019-03-16T03:01:31.634Z,71.47
2019-03-16T03:03:59.077Z,71.35
2019-03-16T03:06:26.495Z,71.52
2019-03-16T03:08:53.929Z,71.85
2019-03-16T03:11:21.324Z,71.87
2019-03-16T03:13:48.742Z,71.86
2019-03-16T03:16:16.154Z,71.82
2019-03-16T03:18:43.580Z,72.10
2019-03-16T03:21:12.834Z,72.03
2019-03-16T03:23:40.277Z,72.20
2019-03-16T03:26:07.632Z,72.17
2019-03-16T03:28:35.052Z,72.08
2019-03-16T03:31:02.411Z,72.26
2019-03-16T03:33:56.095Z,72.25
2019-03-16T03:35:59.149Z,72.17
2019-03-16T03:38:26.602Z,72.00
2019-03-16T03:40:53.970Z,72.47
2019-03-16T03:43:21.378Z,72.74
2019-03-16T03:45:48.768Z,72.29
2019-03-16T03:48:16.185Z,72.49
2019-03-16T03:50:43.527Z,72.85
2019-03-16T03:53:10.990Z,72.79
2019-03-16T03:55:38.455Z,72.95
2019-03-16T03:58:05.854Z,73.13
2019-03-16T04:00:33.228Z,73.24
2019-03-16T04:03:00.649Z,73.66
2019-03-16T04:05:28.069Z,73.81
2019-03-16T04:07:55.498Z,74.13
2019-03-16T04:10:22.887Z,74.06
2019-03-16T04:12:50.346Z,73.83
2019-03-16T04:15:18.244Z,74.04
2019-03-16T04:17:45.649Z,73.89
2019-03-16T04:20:13.157Z,74.07
2019-03-16T04:22:40.518Z,73.93
2019-03-16T04:25:07.948Z,73.79
2019-03-16T04:27:35.291Z,73.63
2019-03-16T04:30:02.725Z,73.53
2019-03-16T04:32:30.212Z,73.67
2019-03-16T04:34:57.633Z,73.60
2019-03-16T04:37:25.018Z,74.12
2019-03-16T04:39:52.428Z,74.18
2019-03-16T04:42:19.807Z,74.38
2019-03-16T04:44:47.252Z,74.82
2019-03-16T04:47:14.637Z,75.33
2019-03-16T04:49:42.028Z,75.99
2019-03-16T04:52:09.387Z,75.60
2019-03-16T04:54:36.853Z,76.34
2019-03-16T04:57:04.222Z,75.04
2019-03-16T04:59:31.663Z,76.01
2019-03-16T05:01:59.027Z,76.59
2019-03-16T05:04:26.953Z,77.39
2019-03-16T05:06:54.327Z,77.61
2019-03-16T05:09:21.733Z,76.25
2019-03-16T05:11:49.092Z,76.79
2019-03-16T05:14:16.528Z,77.62
2019-03-16T05:16:43.903Z,77.21
2019-03-16T05:19:11.313Z,77.63
2019-03-16T05:21:38.686Z,78.05
2019-03-16T05:24:06.117Z,78.85
2019-03-16T05:26:33.515Z,79.67
2019-03-16T05:29:00.907Z,80.44
2019-03-16T05:31:28.322Z,80.58
2019-03-16T05:33:55.693Z,80.49
2019-03-16T05:36:23.132Z,81.15
2019-03-16T05:38:50.477Z,81.67
2019-03-16T05:41:17.897Z,81.85
2019-03-16T05:43:45.283Z,81.60
2019-03-16T05:46:12.672Z,81.61
2019-03-16T05:48:40.069Z,82.20
2019-03-16T05:51:07.492Z,82.25
2019-03-16T05:53:34.914Z,82.57
2019-03-16T05:56:02.307Z,82.30
2019-03-16T05:58:29.667Z,82.69
2019-03-16T06:00:57.062Z,83.25
2019-03-16T06:03:24.466Z,83.65
2019-03-16T06:05:51.898Z,83.65
2019-03-16T06:08:19.272Z,83.86
2019-03-16T06:10:46.710Z,83.08
2019-03-16T06:13:14.065Z,83.26
2019-03-16T06:15:41.482Z,82.75
2019-03-16T06:18:08.866Z,82.75
2019-03-16T06:20:36.292Z,82.78
2019-03-16T06:23:03.649Z,82.90
2019-03-16T06:25:31.091Z,83.32
2019-03-16T06:27:58.433Z,83.41
2019-03-16T06:30:25.887Z,82.98
2019-03-16T06:32:53.247Z,82.98
2019-03-16T06:35:26.383Z,83.35
2019-03-16T06:37:49.942Z,83.75
2019-03-16T06:40:17.387Z,84.20
2019-03-16T06:42:44.755Z,84.58
2019-03-16T06:45:12.284Z,85.15
2019-03-16T06:47:39.667Z,84.73
2019-03-16T06:50:08.092Z,84.51
2019-03-16T06:52:36.769Z,84.24
2019-03-16T06:55:04.412Z,84.92
2019-03-16T06:57:31.797Z,85.26
2019-03-16T06:59:59.167Z,85.74
2019-03-16T07:02:26.632Z,85.65
2019-03-16T07:04:54.012Z,85.51
2019-03-16T07:07:21.447Z,85.22
2019-03-16T07:09:48.806Z,85.97
2019-03-16T07:12:16.227Z,85.30
2019-03-16T07:14:43.612Z,86.14
2019-03-16T07:17:11.051Z,86.63
2019-03-16T07:19:38.483Z,87.90
2019-03-16T07:22:05.892Z,88.55
2019-03-16T07:24:33.247Z,88.81
2019-03-16T07:27:00.667Z,88.55
2019-03-16T07:29:28.078Z,87.98
2019-03-16T07:31:55.692Z,87.54
2019-03-16T07:34:23.075Z,86.71
2019-03-16T07:36:50.471Z,86.96
2019-03-16T07:39:17.862Z,86.83
2019-03-16T07:41:45.287Z,86.87
2019-03-16T07:44:12.699Z,86.69
2019-03-16T07:46:40.191Z,86.93
2019-03-16T07:49:07.572Z,86.92
2019-03-16T07:51:35.094Z,86.61
2019-03-16T07:54:02.555Z,86.81
2019-03-16T07:56:29.967Z,86.99
2019-03-16T07:58:57.363Z,87.51
2019-03-16T08:01:24.802Z,87.68
2019-03-16T08:03:52.182Z,87.36
2019-03-16T08:06:19.607Z,86.45
2019-03-16T08:08:46.999Z,86.86
2019-03-16T08:11:14.471Z,86.82
2019-03-16T08:13:41.854Z,87.74
2019-03-16T08:16:09.272Z,87.63
2019-03-16T08:18:39.187Z,87.90
2019-03-16T08:21:06.602Z,88.17
2019-03-16T08:23:34.008Z,87.62
2019-03-16T08:26:01.412Z,88.09
2019-03-16T08:28:29.068Z,88.59
2019-03-16T08:30:56.976Z,89.07
2019-03-16T08:33:24.446Z,89.59
2019-03-16T08:35:51.847Z,90.31
2019-03-16T08:38:19.272Z,90.16
2019-03-16T08:40:46.633Z,90.61
2019-03-16T08:43:14.092Z,90.68
2019-03-16T08:45:41.792Z,90.71
2019-03-16T08:48:21.812Z,90.44
2019-03-16T08:50:39.267Z,90.81
2019-03-16T08:53:06.697Z,91.10
2019-03-16T08:55:34.142Z,91.29
2019-03-16T08:58:06.029Z,91.22
2019-03-16T09:00:30.847Z,90.95
2019-03-16T09:02:58.289Z,91.36
2019-03-16T09:05:25.667Z,91.58
2019-03-16T09:07:53.092Z,91.47
2019-03-16T09:10:20.482Z,91.26
2019-03-16T09:12:55.000Z,91.46
2019-03-16T09:15:17.287Z,91.22
2019-03-16T09:17:46.323Z,91.37
2019-03-16T09:20:13.799Z,91.83
2019-03-16T09:22:41.598Z,92.04
2019-03-16T09:25:09.026Z,92.47
2019-03-16T09:27:36.546Z,92.12
2019-03-16T09:30:04.673Z,92.33
2019-03-16T09:32:32.101Z,92.40
2019-03-16T09:34:59.526Z,92.43
2019-03-16T09:37:26.913Z,92.36
2019-03-16T09:39:54.261Z,92.57
2019-03-16T09:42:21.667Z,92.47
2019-03-16T09:44:49.008Z,92.51
2019-03-16T09:47:16.432Z,92.55
2019-03-16T09:49:45.504Z,92.59
2019-03-16T09:52:12.960Z,92.64
2019-03-16T09:54:40.427Z,92.79
2019-03-16T09:57:07.842Z,92.80
2019-03-16T09:59:35.241Z,92.86
2019-03-16T10:02:02.726Z,92.93
2019-03-16T10:04:30.137Z,92.82
2019-03-16T10:06:57.572Z,92.73
2019-03-16T10:09:24.951Z,92.80
2019-03-16T10:11:52.362Z,92.97
2019-03-16T10:14:19.889Z,92.67
2019-03-16T10:16:47.274Z,92.71
2019-03-16T10:19:14.694Z,92.64
2019-03-16T10:21:42.122Z,92.56
2019-03-16T10:24:09.547Z,92.52
2019-03-16T10:26:37.681Z,92.37
2019-03-16T10:29:05.212Z,92.23
2019-03-16T10:31:32.607Z,91.84
2019-03-16T10:34:00.008Z,91.66
2019-03-16T10:36:27.427Z,91.75
2019-03-16T10:38:54.909Z,91.39
2019-03-16T10:41:22.318Z,91.05
2019-03-16T10:43:53.107Z,91.08
2019-03-16T10:46:36.107Z,91.01
2019-03-16T10:49:03.640Z,90.77
2019-03-16T10:51:31.036Z,90.39
2019-03-16T10:53:58.622Z,89.65
2019-03-16T10:56:26.017Z,89.27
2019-03-16T10:58:56.743Z,88.88
2019-03-16T11:01:22.758Z,88.44
2019-03-16T11:03:50.196Z,88.35
2019-03-16T11:06:17.609Z,88.42
2019-03-16T11:08:45.055Z,87.89
2019-03-16T11:11:12.467Z,88.05
2019-03-16T11:13:39.872Z,87.77
2019-03-16T11:16:07.301Z,88.00
2019-03-16T11:18:34.734Z,87.94
2019-03-16T11:21:02.127Z,87.83
2019-03-16T11:23:29.647Z,87.79
2019-03-16T11:25:57.428Z,87.76
2019-03-16T11:28:24.887Z,87.85
2019-03-16T11:30:54.307Z,87.83
2019-03-16T11:33:21.829Z,87.91
2019-03-16T11:35:49.387Z,87.83
2019-03-16T11:38:16.908Z,87.78
2019-03-16T11:40:44.312Z,87.86
2019-03-16T11:43:11.687Z,87.44
2019-03-16T11:45:39.097Z,88.01
2019-03-16T11:48:06.502Z,88.09
2019-03-16T11:50:33.873Z,87.75
2019-03-16T11:53:01.378Z,87.65
2019-03-16T11:55:28.823Z,87.59
2019-03-16T11:57:56.292Z,87.71
2019-03-16T12:00:23.792Z,87.60
2019-03-16T12:02:52.836Z,87.52
2019-03-16T12:05:20.732Z,88.04
2019-03-16T12:07:48.115Z,88.25
2019-03-16T12:10:15.642Z,87.99
2019-03-16T12:12:43.069Z,88.03
2019-03-16T12:15:10.873Z,87.82
2019-03-16T12:17:38.307Z,87.40
2019-03-16T12:20:06.653Z,87.41
2019-03-16T12:22:34.128Z,87.51
2019-03-16T12:25:01.583Z,86.67
2019-03-16T12:27:28.948Z,86.57
2019-03-16T12:29:56.517Z,86.08
2019-03-16T12:32:23.923Z,85.71
2019-03-16T12:34:51.362Z,85.57
2019-03-16T12:37:18.763Z,84.24
2019-03-16T12:39:46.187Z,84.76
2019-03-16T12:42:13.577Z,84.97
2019-03-16T12:44:41.089Z,84.04
2019-03-16T12:47:10.472Z,84.14
2019-03-16T12:49:38.007Z,83.55
2019-03-16T12:52:05.478Z,83.65
2019-03-16T12:54:33.024Z,83.18
2019-03-16T12:57:00.673Z,83.43
2019-03-16T12:59:28.166Z,82.59
2019-03-16T13:01:55.687Z,82.24
2019-03-16T13:04:23.312Z,81.62
2019-03-16T13:06:50.928Z,81.21
2019-03-16T13:09:18.397Z,80.96
2019-03-16T13:11:45.960Z,80.02
2019-03-16T13:14:13.552Z,80.10
2019-03-16T13:16:41.056Z,79.67
2019-03-16T13:19:08.598Z,80.10
2019-03-16T13:21:36.097Z,79.76
2019-03-16T13:24:03.778Z,80.01
2019-03-16T13:26:31.408Z,79.94
2019-03-16T13:28:59.242Z,79.74
2019-03-16T13:31:26.713Z,79.49
2019-03-16T13:33:54.229Z,79.64
2019-03-16T13:36:21.747Z,79.91
2019-03-16T13:38:49.362Z,81.10
2019-03-16T13:41:17.202Z,81.78
2019-03-16T13:43:44.968Z,80.38
2019-03-16T13:46:12.727Z,79.63
2019-03-16T13:48:40.277Z,79.42
2019-03-16T13:51:08.113Z,79.01
2019-03-16T13:53:35.833Z,78.48
2019-03-16T13:56:04.037Z,78.85
2019-03-16T13:58:31.812Z,78.89
2019-03-16T14:00:59.852Z,78.66
2019-03-16T14:03:27.501Z,78.30
2019-03-16T14:05:55.348Z,78.56
2019-03-16T14:08:22.882Z,78.62
2019-03-16T14:10:53.337Z,78.64
2019-03-16T14:13:21.395Z,78.76
2019-03-16T14:15:49.123Z,77.29
2019-03-16T14:18:16.828Z,77.63
2019-03-16T14:20:44.582Z,77.16
2019-03-16T14:23:12.242Z,76.92
2019-03-16T14:25:40.277Z,76.17
2019-03-16T14:28:08.048Z,76.54
2019-03-16T14:30:41.777Z,75.58
2019-03-16T14:33:05.607Z,76.11
2019-03-16T14:35:33.597Z,75.93
2019-03-16T14:38:01.742Z,76.28
2019-03-16T14:40:29.520Z,76.37
2019-03-16T14:42:57.092Z,76.02
2019-03-16T14:45:25.441Z,76.57
2019-03-16T14:47:57.652Z,77.02
2019-03-16T14:50:25.328Z,77.16
2019-03-16T14:52:53.082Z,78.32
2019-03-16T14:55:20.959Z,78.55
2019-03-16T14:57:53.472Z,78.92
2019-03-16T15:00:21.062Z,78.08
2019-03-16T15:02:48.650Z,78.22
2019-03-16T15:05:16.536Z,77.63
2019-03-16T15:07:44.313Z,77.68
2019-03-16T15:10:12.190Z,77.78
2019-03-16T15:12:39.882Z,78.54
2019-03-16T15:15:09.434Z,79.17
2019-03-16T15:17:37.323Z,78.86
2019-03-16T15:20:05.472Z,78.56
2019-03-16T15:22:33.267Z,78.13
2019-03-16T15:25:02.351Z,77.17
2019-03-16T15:27:30.032Z,76.65
2019-03-16T15:30:27.822Z,76.64
2019-03-16T15:33:05.363Z,76.17
2019-03-16T15:36:02.986Z,76.12
2019-03-16T15:39:15.044Z,75.70
2019-03-16T15:42:04.461Z,74.55
2019-03-16T15:44:38.255Z,74.95
2019-03-16T15:47:30.035Z,74.14
2019-03-16T15:50:10.303Z,72.96
2019-03-16T15:53:51.921Z,73.12
2019-03-16T15:55:51.204Z,72.90
2019-03-16T15:58:24.720Z,73.10
2019-03-16T16:01:49.943Z,72.71
2019-03-16T16:04:18.738Z,72.61
2019-03-16T16:06:46.724Z,72.49
2019-03-16T16:09:14.545Z,72.86
2019-03-16T16:11:42.402Z,73.23
2019-03-16T16:14:10.098Z,72.80
2019-03-16T16:16:38.052Z,73.22
2019-03-16T16:19:06.307Z,73.07
2019-03-16T16:21:36.928Z,72.67
2019-03-16T16:24:08.010Z,72.50
2019-03-16T16:26:35.927Z,72.74
2019-03-16T16:29:03.871Z,72.75
2019-03-16T16:31:31.835Z,71.93
2019-03-16T16:34:02.690Z,72.01
2019-03-16T16:36:29.523Z,71.62
2019-03-16T16:38:57.646Z,71.68
2019-03-16T16:41:25.916Z,71.60
2019-03-16T16:43:53.742Z,71.54
2019-03-16T16:46:21.802Z,71.20
2019-03-16T16:48:49.472Z,71.77
2019-03-16T16:51:20.032Z,71.05
2019-03-16T16:53:48.072Z,71.30
2019-03-16T16:56:18.522Z,71.06
2019-03-16T16:58:46.291Z,71.31
2019-03-16T17:01:28.513Z,71.23
2019-03-16T17:03:44.892Z,70.87
2019-03-16T17:06:12.762Z,70.89
2019-03-16T17:08:40.839Z,71.17
2019-03-16T17:11:12.874Z,71.01
2019-03-16T17:13:42.762Z,71.44
2019-03-16T17:16:17.427Z,71.12
2019-03-16T17:18:48.072Z,71.63
2019-03-16T17:21:24.162Z,71.07
2019-03-16T17:23:52.147Z,71.66
2019-03-16T17:26:21.020Z,71.46
2019-03-16T17:28:48.877Z,71.53
2019-03-16T17:31:16.772Z,71.26
2019-03-16T17:33:44.647Z,71.07
2019-03-16T17:36:12.437Z,71.40
2019-03-16T17:39:20.737Z,71.37
2019-03-16T17:41:50.789Z,71.08
2019-03-16T17:44:34.701Z,71.67
2019-03-16T17:47:44.646Z,71.27
2019-03-16T17:57:28.507Z,70.86
2019-03-16T18:00:05.338Z,70.73
2019-03-16T18:02:34.832Z,71.37
2019-03-16T18:05:06.256Z,70.51
2019-03-16T18:07:34.188Z,70.32
2019-03-16T18:10:01.919Z,70.62
2019-03-16T18:12:29.901Z,70.42
2019-03-16T18:14:57.857Z,70.56
2019-03-16T18:17:25.652Z,69.85
2019-03-16T18:19:53.367Z,70.08
2019-03-16T18:22:21.218Z,69.81
2019-03-16T18:24:49.213Z,69.88
2019-03-16T18:27:29.672Z,70.58
2019-03-16T18:30:00.168Z,70.72
2019-03-16T18:32:28.507Z,70.24
2019-03-16T18:34:56.347Z,70.58
2019-03-16T18:37:24.162Z,70.47
2019-03-16T18:39:52.127Z,70.83
2019-03-16T18:42:20.063Z,70.94
2019-03-16T18:44:49.997Z,70.32
2019-03-16T18:47:17.943Z,70.81
2019-03-16T18:49:56.490Z,71.03
2019-03-16T18:53:09.142Z,71.00
2019-03-16T18:55:37.967Z,70.60
2019-03-16T18:58:37.696Z,70.16
2019-03-16T19:01:43.737Z,69.92
2019-03-16T19:05:34.696Z,69.48
2019-03-16T19:08:16.047Z,69.62
2019-03-16T19:11:22.766Z,69.02
2019-03-16T19:15:12.086Z,68.92
2019-03-16T19:25:25.890Z,68.36
2019-03-16T19:29:10.994Z,68.24
2019-03-16T19:38:42.496Z,67.47
2019-03-16T19:41:12.427Z,67.73
2019-03-16T19:43:40.328Z,67.89
2019-03-16T19:46:14.979Z,68.12
2019-03-16T19:48:42.956Z,67.83
2019-03-16T19:51:13.896Z,67.61
2019-03-16T19:53:41.730Z,67.90
2019-03-16T19:56:12.801Z,68.43
2019-03-16T19:59:00.235Z,68.36
2019-03-16T20:01:20.153Z,68.00
2019-03-16T20:03:48.326Z,68.58
2019-03-16T20:06:26.291Z,68.84
2019-03-16T20:15:03.025Z,68.41
2019-03-16T20:21:20.235Z,68.73
2019-03-16T20:21:57.170Z,68.80
2019-03-16T20:30:55.940Z,68.81
2019-03-16T20:34:51.542Z,68.69
2019-03-16T20:38:00.660Z,68.67
2019-03-16T20:41:35.701Z,68.99
2019-03-16T20:52:35.720Z,69.44
2019-03-16T21:05:22.894Z,69.31
2019-03-16T21:07:54.634Z,69.49
2019-03-16T21:10:24.159Z,69.74
2019-03-16T21:12:56.402Z,69.66
2019-03-16T21:15:24.265Z,69.51
2019-03-16T21:17:51.930Z,69.55
2019-03-16T21:20:44.304Z,69.65
2019-03-16T21:23:28.520Z,69.71
2019-03-16T21:25:59.124Z,69.79
2019-03-16T21:28:29.608Z,69.52
2019-03-16T21:31:00.935Z,69.68
2019-03-16T21:33:30.044Z,69.57
2019-03-16T21:35:58.197Z,69.74
2019-03-16T21:38:26.016Z,69.66
2019-03-16T21:40:53.860Z,69.76
2019-03-16T21:43:23.895Z,69.85
2019-03-16T21:45:51.917Z,69.81
2019-03-16T21:48:19.680Z,69.61
2019-03-16T21:50:47.415Z,69.48
2019-03-16T21:53:27.219Z,69.50
2019-03-16T21:56:44.804Z,69.91
2019-03-16T21:59:26.469Z,69.63
2019-03-16T22:01:54.402Z,69.65
2019-03-16T22:04:22.060Z,69.54
2019-03-16T22:06:49.550Z,69.47
2019-03-16T22:09:19.690Z,69.58
2019-03-16T22:12:02.256Z,69.44
2019-03-16T22:14:29.797Z,69.66
2019-03-16T22:16:57.236Z,69.32
2019-03-16T22:19:24.630Z,69.37
2019-03-16T22:21:52.095Z,69.49
2019-03-16T22:24:21.140Z,69.55
2019-03-16T22:26:48.575Z,69.42
2019-03-16T22:29:15.976Z,69.55
2019-03-16T22:31:43.506Z,69.02
2019-03-16T22:34:10.870Z,69.46
2019-03-16T22:36:38.326Z,69.32
2019-03-16T22:39:07.038Z,69.64
2019-03-16T22:41:34.460Z,69.72
2019-03-16T22:44:01.825Z,69.68
2019-03-16T22:46:29.290Z,69.34
2019-03-16T22:48:56.861Z,69.34
2019-03-16T22:51:27.115Z,69.81
2019-03-16T22:53:54.705Z,69.90
2019-03-16T22:56:22.426Z,69.42
2019-03-16T22:58:49.828Z,69.58
2019-03-16T23:01:19.856Z,69.59
2019-03-16T23:03:47.445Z,69.56
2019-03-16T23:06:15.120Z,69.59
2019-03-16T23:08:42.764Z,69.43
2019-03-16T23:11:10.517Z,69.67
2019-03-16T23:13:38.257Z,69.56
2019-03-16T23:16:05.975Z,69.71
2019-03-16T23:18:33.340Z,69.88
2019-03-16T23:21:00.820Z,69.43
2019-03-16T23:23:28.224Z,69.58
2019-03-16T23:25:55.616Z,69.71
2019-03-16T23:28:22.994Z,69.77
2019-03-16T23:30:50.400Z,69.50
2019-03-16T23:33:17.826Z,69.69
2019-03-16T23:35:45.249Z,69.37
2019-03-16T23:38:13.002Z,69.34
2019-03-16T23:40:40.735Z,69.44
2019-03-16T23:43:08.551Z,69.41
2019-03-16T23:45:36.422Z,69.34
2019-03-16T23:48:04.625Z,69.28
2019-03-16T23:50:33.200Z,69.57
2019-03-16T23:53:00.900Z,69.77
2019-03-16T23:55:28.694Z,69.37
2019-03-16T23:57:56.626Z,69.41
